sensor_id;sensor_type;location;lat;lon;timestamp;temperature;humidity
6355;DHT22;3210;48.708;9.030;2022-07-22T00:01:32;16.90;99.90
6355;DHT22;3210;48.708;9.030;2022-07-22T00:04:00;16.80;99.90
6355;DHT22;3210;48.708;9.030;2022-07-22T00:06:28;16.90;99.90
6355;DHT22;3210;48.708;9.030;2022-07-22T00:08:55;16.90;99.90
6355;DHT22;3210;48.708;9.030;2022-07-22T00:11:22;16.90;99.90
6355;DHT22;3210;48.708;9.030;2022-07-22T00:13:49;17.00;99.90
6355;DHT22;3210;48.708;9.030;2022-07-22T00:16:16;17.00;99.90
6355;DHT22;3210;48.708;9.030;2022-07-22T00:18:43;16.90;99.90
6355;DHT22;3210;48.708;9.030;2022-07-22T00:21:11;16.90;99.90
6355;DHT22;3210;48.708;9.030;2022-07-22T00:23:38;17.00;99.90
6355;DHT22;3210;48.708;9.030;2022-07-22T00:26:05;17.00;99.90
6355;DHT22;3210;48.708;9.030;2022-07-22T00:28:32;17.00;99.90
6355;DHT22;3210;48.708;9.030;2022-07-22T00:30:59;17.00;99.90
6355;DHT22;3210;48.708;9.030;2022-07-22T00:33:25;17.00;99.90
6355;DHT22;3210;48.708;9.030;2022-07-22T00:35:52;17.00;99.90
6355;DHT22;3210;48.708;9.030;2022-07-22T00:38:20;16.80;99.90
6355;DHT22;3210;48.708;9.030;2022-07-22T00:40:47;16.60;99.90
6355;DHT22;3210;48.708;9.030;2022-07-22T00:43:14;16.60;99.90
6355;DHT22;3210;48.708;9.030;2022-07-22T00:45:40;16.70;99.90
6355;DHT22;3210;48.708;9.030;2022-07-22T00:48:07;16.70;99.90
6355;DHT22;3210;48.708;9.030;2022-07-22T00:50:34;16.70;99.90
6355;DHT22;3210;48.708;9.030;2022-07-22T00:53:01;16.60;99.90
6355;DHT22;3210;48.708;9.030;2022-07-22T00:55:33;16.70;99.90
6355;DHT22;3210;48.708;9.030;2022-07-22T00:58:00;16.70;99.90
6355;DHT22;3210;48.708;9.030;2022-07-22T01:00:27;16.60;99.90
6355;DHT22;3210;48.708;9.030;2022-07-22T01:02:54;16.50;99.90
6355;DHT22;3210;48.708;9.030;2022-07-22T01:05:21;16.50;99.90
6355;DHT22;3210;48.708;9.030;2022-07-22T01:07:48;16.50;99.90
6355;DHT22;3210;48.708;9.030;2022-07-22T01:10:14;16.50;99.90
6355;DHT22;3210;48.708;9.030;2022-07-22T01:12:43;16.40;99.90
6355;DHT22;3210;48.708;9.030;2022-07-22T01:15:10;16.30;99.90
6355;DHT22;3210;48.708;9.030;2022-07-22T01:17:37;16.40;99.90
6355;DHT22;3210;48.708;9.030;2022-07-22T01:20:07;16.40;99.90
6355;DHT22;3210;48.708;9.030;2022-07-22T01:22:34;16.40;99.90
6355;DHT22;3210;48.708;9.030;2022-07-22T01:25:01;16.40;99.90
6355;DHT22;3210;48.708;9.030;2022-07-22T01:27:28;16.50;99.90
6355;DHT22;3210;48.708;9.030;2022-07-22T01:29:55;16.30;99.90
6355;DHT22;3210;48.708;9.030;2022-07-22T01:32:21;16.30;99.90
6355;DHT22;3210;48.708;9.030;2022-07-22T01:34:48;16.40;99.90
6355;DHT22;3210;48.708;9.030;2022-07-22T01:37:17;16.40;99.90
6355;DHT22;3210;48.708;9.030;2022-07-22T01:39:43;16.40;99.90
6355;DHT22;3210;48.708;9.030;2022-07-22T01:42:10;16.40;99.90
6355;DHT22;3210;48.708;9.030;2022-07-22T01:44:37;16.30;99.90
6355;DHT22;3210;48.708;9.030;2022-07-22T01:47:04;16.10;99.90
6355;DHT22;3210;48.708;9.030;2022-07-22T01:49:31;16.00;99.90
6355;DHT22;3210;48.708;9.030;2022-07-22T01:51:58;16.10;99.90
6355;DHT22;3210;48.708;9.030;2022-07-22T01:54:27;16.10;99.90
6355;DHT22;3210;48.708;9.030;2022-07-22T01:56:54;16.20;99.90
6355;DHT22;3210;48.708;9.030;2022-07-22T01:59:21;16.20;99.90
6355;DHT22;3210;48.708;9.030;2022-07-22T02:01:47;16.20;99.90
6355;DHT22;3210;48.708;9.030;2022-07-22T02:04:14;16.20;99.90
6355;DHT22;3210;48.708;9.030;2022-07-22T02:06:41;16.20;99.90
6355;DHT22;3210;48.708;9.030;2022-07-22T02:09:08;16.20;99.90
6355;DHT22;3210;48.708;9.030;2022-07-22T02:11:36;16.10;99.90
6355;DHT22;3210;48.708;9.030;2022-07-22T02:14:03;16.10;99.90
6355;DHT22;3210;48.708;9.030;2022-07-22T02:16:30;16.00;99.90
6355;DHT22;3210;48.708;9.030;2022-07-22T02:18:56;16.10;99.90
6355;DHT22;3210;48.708;9.030;2022-07-22T02:21:23;16.00;99.90
6355;DHT22;3210;48.708;9.030;2022-07-22T02:23:50;16.00;99.90
6355;DHT22;3210;48.708;9.030;2022-07-22T02:26:17;16.00;99.90
6355;DHT22;3210;48.708;9.030;2022-07-22T02:28:45;16.00;99.90
6355;DHT22;3210;48.708;9.030;2022-07-22T02:31:12;15.90;99.90
6355;DHT22;3210;48.708;9.030;2022-07-22T02:33:39;15.80;99.90
6355;DHT22;3210;48.708;9.030;2022-07-22T02:36:06;15.80;99.90
6355;DHT22;3210;48.708;9.030;2022-07-22T02:38:33;15.80;99.90
6355;DHT22;3210;48.708;9.030;2022-07-22T02:41:00;15.90;99.90
6355;DHT22;3210;48.708;9.030;2022-07-22T02:43:26;15.80;99.90
6355;DHT22;3210;48.708;9.030;2022-07-22T02:45:55;15.80;99.90
6355;DHT22;3210;48.708;9.030;2022-07-22T02:48:21;15.80;99.90
6355;DHT22;3210;48.708;9.030;2022-07-22T02:50:48;15.80;99.90
6355;DHT22;3210;48.708;9.030;2022-07-22T02:53:15;15.80;99.90
6355;DHT22;3210;48.708;9.030;2022-07-22T02:55:42;15.90;99.90
6355;DHT22;3210;48.708;9.030;2022-07-22T02:58:09;15.80;99.90
6355;DHT22;3210;48.708;9.030;2022-07-22T03:00:36;15.90;99.90
6355;DHT22;3210;48.708;9.030;2022-07-22T03:03:05;15.80;99.90
6355;DHT22;3210;48.708;9.030;2022-07-22T03:05:32;15.60;99.90
6355;DHT22;3210;48.708;9.030;2022-07-22T03:07:59;15.70;99.90
6355;DHT22;3210;48.708;9.030;2022-07-22T03:10:26;15.70;99.90
6355;DHT22;3210;48.708;9.030;2022-07-22T03:12:52;15.80;99.90
6355;DHT22;3210;48.708;9.030;2022-07-22T03:15:19;15.70;99.90
6355;DHT22;3210;48.708;9.030;2022-07-22T03:17:46;15.70;99.90
6355;DHT22;3210;48.708;9.030;2022-07-22T03:20:14;15.70;99.90
6355;DHT22;3210;48.708;9.030;2022-07-22T03:22:41;15.80;99.90
6355;DHT22;3210;48.708;9.030;2022-07-22T03:25:08;15.70;99.90
6355;DHT22;3210;48.708;9.030;2022-07-22T03:27:36;15.70;99.90
6355;DHT22;3210;48.708;9.030;2022-07-22T03:30:04;15.70;99.90
6355;DHT22;3210;48.708;9.030;2022-07-22T03:32:31;15.80;99.90
6355;DHT22;3210;48.708;9.030;2022-07-22T03:34:58;15.70;99.90
6355;DHT22;3210;48.708;9.030;2022-07-22T03:37:26;15.60;99.90
6355;DHT22;3210;48.708;9.030;2022-07-22T03:39:53;15.60;99.90
6355;DHT22;3210;48.708;9.030;2022-07-22T03:42:19;15.60;99.90
6355;DHT22;3210;48.708;9.030;2022-07-22T03:44:46;15.60;99.90
6355;DHT22;3210;48.708;9.030;2022-07-22T03:47:17;15.60;99.90
6355;DHT22;3210;48.708;9.030;2022-07-22T03:49:44;15.60;99.90
6355;DHT22;3210;48.708;9.030;2022-07-22T03:52:11;15.50;99.90
6355;DHT22;3210;48.708;9.030;2022-07-22T03:54:39;15.50;99.90
6355;DHT22;3210;48.708;9.030;2022-07-22T03:57:06;15.30;99.90
6355;DHT22;3210;48.708;9.030;2022-07-22T03:59:33;15.30;99.90
6355;DHT22;3210;48.708;9.030;2022-07-22T04:02:00;15.40;99.90
6355;DHT22;3210;48.708;9.030;2022-07-22T04:04:27;15.40;99.90
6355;DHT22;3210;48.708;9.030;2022-07-22T04:06:54;15.50;99.90
6355;DHT22;3210;48.708;9.030;2022-07-22T04:09:20;15.40;99.90
6355;DHT22;3210;48.708;9.030;2022-07-22T04:11:49;15.50;99.90
6355;DHT22;3210;48.708;9.030;2022-07-22T04:14:16;15.50;99.90
6355;DHT22;3210;48.708;9.030;2022-07-22T04:16:43;15.50;99.90
6355;DHT22;3210;48.708;9.030;2022-07-22T04:19:10;15.50;99.90
6355;DHT22;3210;48.708;9.030;2022-07-22T04:21:37;15.60;99.90
6355;DHT22;3210;48.708;9.030;2022-07-22T04:24:04;15.50;99.90
6355;DHT22;3210;48.708;9.030;2022-07-22T04:26:31;15.60;99.90
6355;DHT22;3210;48.708;9.030;2022-07-22T04:28:59;15.60;99.90
6355;DHT22;3210;48.708;9.030;2022-07-22T04:31:26;15.70;99.90
6355;DHT22;3210;48.708;9.030;2022-07-22T04:33:53;15.70;99.90
6355;DHT22;3210;48.708;9.030;2022-07-22T04:36:20;15.70;99.90
6355;DHT22;3210;48.708;9.030;2022-07-22T04:38:47;15.80;99.90
6355;DHT22;3210;48.708;9.030;2022-07-22T04:41:13;15.90;99.90
6355;DHT22;3210;48.708;9.030;2022-07-22T04:43:40;15.90;99.90
6355;DHT22;3210;48.708;9.030;2022-07-22T04:46:08;15.90;99.90
6355;DHT22;3210;48.708;9.030;2022-07-22T04:48:35;16.00;99.90
6355;DHT22;3210;48.708;9.030;2022-07-22T04:51:03;16.00;99.90
6355;DHT22;3210;48.708;9.030;2022-07-22T04:53:30;16.10;99.90
6355;DHT22;3210;48.708;9.030;2022-07-22T04:55:57;16.20;99.90
6355;DHT22;3210;48.708;9.030;2022-07-22T04:58:23;16.30;99.90
6355;DHT22;3210;48.708;9.030;2022-07-22T05:00:50;16.40;99.90
6355;DHT22;3210;48.708;9.030;2022-07-22T05:03:19;16.40;99.90
6355;DHT22;3210;48.708;9.030;2022-07-22T05:05:45;16.50;99.90
6355;DHT22;3210;48.708;9.030;2022-07-22T05:08:12;16.60;99.90
6355;DHT22;3210;48.708;9.030;2022-07-22T05:10:39;16.60;99.90
6355;DHT22;3210;48.708;9.030;2022-07-22T05:13:06;16.60;99.90
6355;DHT22;3210;48.708;9.030;2022-07-22T05:15:33;16.70;99.90
6355;DHT22;3210;48.708;9.030;2022-07-22T05:17:59;16.80;99.90
6355;DHT22;3210;48.708;9.030;2022-07-22T05:20:28;17.00;99.90
6355;DHT22;3210;48.708;9.030;2022-07-22T05:22:54;17.10;99.90
6355;DHT22;3210;48.708;9.030;2022-07-22T05:25:21;17.10;99.90
6355;DHT22;3210;48.708;9.030;2022-07-22T05:27:52;17.30;99.90
6355;DHT22;3210;48.708;9.030;2022-07-22T05:30:19;17.50;99.90
6355;DHT22;3210;48.708;9.030;2022-07-22T05:32:46;17.50;99.90
6355;DHT22;3210;48.708;9.030;2022-07-22T05:35:13;17.60;99.90
6355;DHT22;3210;48.708;9.030;2022-07-22T05:37:41;17.60;99.90
6355;DHT22;3210;48.708;9.030;2022-07-22T05:40:09;17.60;99.90
6355;DHT22;3210;48.708;9.030;2022-07-22T05:42:36;17.80;99.90
6355;DHT22;3210;48.708;9.030;2022-07-22T05:45:03;17.80;99.90
6355;DHT22;3210;48.708;9.030;2022-07-22T05:47:30;17.90;99.90
6355;DHT22;3210;48.708;9.030;2022-07-22T05:49:57;18.00;99.90
6355;DHT22;3210;48.708;9.030;2022-07-22T05:52:24;18.00;99.90
6355;DHT22;3210;48.708;9.030;2022-07-22T05:54:52;18.10;99.90
6355;DHT22;3210;48.708;9.030;2022-07-22T05:57:19;18.20;99.90
6355;DHT22;3210;48.708;9.030;2022-07-22T05:59:46;18.40;99.90
6355;DHT22;3210;48.708;9.030;2022-07-22T06:02:12;18.50;99.90
6355;DHT22;3210;48.708;9.030;2022-07-22T06:04:39;18.80;99.90
6355;DHT22;3210;48.708;9.030;2022-07-22T06:07:06;18.90;99.90
6355;DHT22;3210;48.708;9.030;2022-07-22T06:09:33;19.20;99.90
6355;DHT22;3210;48.708;9.030;2022-07-22T06:12:01;19.30;99.90
6355;DHT22;3210;48.708;9.030;2022-07-22T06:14:28;19.50;99.90
6355;DHT22;3210;48.708;9.030;2022-07-22T06:16:55;19.50;99.90
6355;DHT22;3210;48.708;9.030;2022-07-22T06:19:21;19.70;99.90
6355;DHT22;3210;48.708;9.030;2022-07-22T06:21:49;19.80;99.90
6355;DHT22;3210;48.708;9.030;2022-07-22T06:24:16;19.90;99.90
6355;DHT22;3210;48.708;9.030;2022-07-22T06:26:43;19.90;99.90
6355;DHT22;3210;48.708;9.030;2022-07-22T06:29:12;20.00;99.90
6355;DHT22;3210;48.708;9.030;2022-07-22T06:31:38;20.20;99.90
6355;DHT22;3210;48.708;9.030;2022-07-22T06:34:05;20.30;99.90
6355;DHT22;3210;48.708;9.030;2022-07-22T06:36:32;20.50;99.90
6355;DHT22;3210;48.708;9.030;2022-07-22T06:39:00;20.60;99.90
6355;DHT22;3210;48.708;9.030;2022-07-22T06:41:27;20.60;1.00
6355;DHT22;3210;48.708;9.030;2022-07-22T06:43:54;20.60;20.40
6355;DHT22;3210;48.708;9.030;2022-07-22T06:46:23;20.70;99.90
6355;DHT22;3210;48.708;9.030;2022-07-22T06:48:49;21.00;1.00
6355;DHT22;3210;48.708;9.030;2022-07-22T06:51:16;20.90;1.00
6355;DHT22;3210;48.708;9.030;2022-07-22T06:53:43;21.00;1.00
6355;DHT22;3210;48.708;9.030;2022-07-22T06:56:10;21.10;1.00
6355;DHT22;3210;48.708;9.030;2022-07-22T06:58:37;21.20;1.00
6355;DHT22;3210;48.708;9.030;2022-07-22T07:01:04;21.30;1.00
6355;DHT22;3210;48.708;9.030;2022-07-22T07:03:32;21.20;1.00
6355;DHT22;3210;48.708;9.030;2022-07-22T07:05:59;21.30;1.00
6355;DHT22;3210;48.708;9.030;2022-07-22T07:08:26;21.30;1.00
6355;DHT22;3210;48.708;9.030;2022-07-22T07:10:53;21.40;1.00
6355;DHT22;3210;48.708;9.030;2022-07-22T07:13:19;21.60;99.90
6355;DHT22;3210;48.708;9.030;2022-07-22T07:15:46;21.70;1.00
6355;DHT22;3210;48.708;9.030;2022-07-22T07:18:13;21.80;99.90
6355;DHT22;3210;48.708;9.030;2022-07-22T07:20:41;21.90;99.90
6355;DHT22;3210;48.708;9.030;2022-07-22T07:23:08;22.10;92.30
6355;DHT22;3210;48.708;9.030;2022-07-22T07:25:35;22.10;99.90
6355;DHT22;3210;48.708;9.030;2022-07-22T07:28:02;22.30;1.00
6355;DHT22;3210;48.708;9.030;2022-07-22T07:30:28;22.40;1.00
6355;DHT22;3210;48.708;9.030;2022-07-22T07:32:55;22.50;1.00
6355;DHT22;3210;48.708;9.030;2022-07-22T07:35:22;22.40;1.00
6355;DHT22;3210;48.708;9.030;2022-07-22T07:37:50;22.60;1.00
6355;DHT22;3210;48.708;9.030;2022-07-22T07:40:17;22.90;1.00
6355;DHT22;3210;48.708;9.030;2022-07-22T07:42:44;22.90;1.00
6355;DHT22;3210;48.708;9.030;2022-07-22T07:45:11;23.20;99.90
6355;DHT22;3210;48.708;9.030;2022-07-22T07:47:38;23.20;1.00
6355;DHT22;3210;48.708;9.030;2022-07-22T07:50:06;23.30;99.90
6355;DHT22;3210;48.708;9.030;2022-07-22T07:52:37;23.40;1.00
6355;DHT22;3210;48.708;9.030;2022-07-22T07:55:06;23.50;99.90
6355;DHT22;3210;48.708;9.030;2022-07-22T07:57:33;23.50;99.90
6355;DHT22;3210;48.708;9.030;2022-07-22T08:00:01;23.60;99.90
6355;DHT22;3210;48.708;9.030;2022-07-22T08:02:28;23.70;99.90
6355;DHT22;3210;48.708;9.030;2022-07-22T08:04:55;23.70;99.90
6355;DHT22;3210;48.708;9.030;2022-07-22T08:07:22;23.80;99.90
6355;DHT22;3210;48.708;9.030;2022-07-22T08:09:48;24.00;1.00
6355;DHT22;3210;48.708;9.030;2022-07-22T08:12:16;24.10;99.90
6355;DHT22;3210;48.708;9.030;2022-07-22T08:14:43;24.20;1.00
6355;DHT22;3210;48.708;9.030;2022-07-22T08:17:10;24.50;1.00
6355;DHT22;3210;48.708;9.030;2022-07-22T08:19:37;24.40;99.90
6355;DHT22;3210;48.708;9.030;2022-07-22T08:22:04;24.60;1.00
6355;DHT22;3210;48.708;9.030;2022-07-22T08:24:31;24.70;99.90
6355;DHT22;3210;48.708;9.030;2022-07-22T08:26:57;24.90;99.90
6355;DHT22;3210;48.708;9.030;2022-07-22T08:29:25;24.90;99.90
6355;DHT22;3210;48.708;9.030;2022-07-22T08:31:52;25.20;1.00
6355;DHT22;3210;48.708;9.030;2022-07-22T08:34:19;25.30;99.90
6355;DHT22;3210;48.708;9.030;2022-07-22T08:36:46;25.20;1.00
6355;DHT22;3210;48.708;9.030;2022-07-22T08:39:13;25.20;1.00
6355;DHT22;3210;48.708;9.030;2022-07-22T08:41:40;25.30;1.00
6355;DHT22;3210;48.708;9.030;2022-07-22T08:44:08;25.40;99.90
6355;DHT22;3210;48.708;9.030;2022-07-22T08:46:36;25.60;24.00
6355;DHT22;3210;48.708;9.030;2022-07-22T08:49:03;25.40;1.00
6355;DHT22;3210;48.708;9.030;2022-07-22T08:51:32;25.20;99.90
6355;DHT22;3210;48.708;9.030;2022-07-22T08:53:59;25.10;99.90
6355;DHT22;3210;48.708;9.030;2022-07-22T08:56:26;25.00;99.90
6355;DHT22;3210;48.708;9.030;2022-07-22T08:58:53;25.30;99.90
6355;DHT22;3210;48.708;9.030;2022-07-22T09:01:20;25.50;1.00
6355;DHT22;3210;48.708;9.030;2022-07-22T09:03:50;25.30;99.90
6355;DHT22;3210;48.708;9.030;2022-07-22T09:06:18;25.10;1.00
6355;DHT22;3210;48.708;9.030;2022-07-22T09:08:53;25.50;46.60
6355;DHT22;3210;48.708;9.030;2022-07-22T09:11:22;25.50;99.90
6355;DHT22;3210;48.708;9.030;2022-07-22T09:13:51;25.80;1.00
6355;DHT22;3210;48.708;9.030;2022-07-22T09:16:40;26.00;99.90
6355;DHT22;3210;48.708;9.030;2022-07-22T09:19:09;26.00;99.90
6355;DHT22;3210;48.708;9.030;2022-07-22T09:21:37;26.20;99.90
6355;DHT22;3210;48.708;9.030;2022-07-22T09:24:05;26.20;99.90
6355;DHT22;3210;48.708;9.030;2022-07-22T09:26:34;26.40;99.90
6355;DHT22;3210;48.708;9.030;2022-07-22T09:29:01;26.60;99.90
6355;DHT22;3210;48.708;9.030;2022-07-22T09:31:30;26.90;73.10
6355;DHT22;3210;48.708;9.030;2022-07-22T09:33:57;27.10;1.00
6355;DHT22;3210;48.708;9.030;2022-07-22T09:36:26;27.00;1.00
6355;DHT22;3210;48.708;9.030;2022-07-22T09:38:53;27.00;93.70
6355;DHT22;3210;48.708;9.030;2022-07-22T09:41:21;27.00;78.10
6355;DHT22;3210;48.708;9.030;2022-07-22T09:43:48;27.10;66.70
6355;DHT22;3210;48.708;9.030;2022-07-22T09:46:16;27.30;4.90
6355;DHT22;3210;48.708;9.030;2022-07-22T09:48:43;27.40;79.40
6355;DHT22;3210;48.708;9.030;2022-07-22T09:51:10;27.40;1.00
6355;DHT22;3210;48.708;9.030;2022-07-22T09:53:38;27.00;42.00
6355;DHT22;3210;48.708;9.030;2022-07-22T09:56:07;26.80;99.90
6355;DHT22;3210;48.708;9.030;2022-07-22T09:58:33;26.50;99.90
6355;DHT22;3210;48.708;9.030;2022-07-22T10:01:03;27.00;99.90
6355;DHT22;3210;48.708;9.030;2022-07-22T10:03:32;27.00;99.90
6355;DHT22;3210;48.708;9.030;2022-07-22T10:06:01;27.40;80.60
6355;DHT22;3210;48.708;9.030;2022-07-22T10:08:30;27.60;1.00
6355;DHT22;3210;48.708;9.030;2022-07-22T10:11:02;27.20;99.90
6355;DHT22;3210;48.708;9.030;2022-07-22T10:13:29;27.50;37.20
6355;DHT22;3210;48.708;9.030;2022-07-22T10:15:57;27.90;57.90
6355;DHT22;3210;48.708;9.030;2022-07-22T10:18:25;28.30;99.90
6355;DHT22;3210;48.708;9.030;2022-07-22T10:21:02;28.20;20.10
6355;DHT22;3210;48.708;9.030;2022-07-22T10:23:29;28.50;99.90
6355;DHT22;3210;48.708;9.030;2022-07-22T10:25:59;28.50;99.90
6355;DHT22;3210;48.708;9.030;2022-07-22T10:28:27;28.50;99.90
6355;DHT22;3210;48.708;9.030;2022-07-22T10:31:17;28.70;99.90
6355;DHT22;3210;48.708;9.030;2022-07-22T10:33:45;28.90;99.90
6355;DHT22;3210;48.708;9.030;2022-07-22T10:36:12;28.80;99.90
6355;DHT22;3210;48.708;9.030;2022-07-22T10:41:34;28.80;99.90
6355;DHT22;3210;48.708;9.030;2022-07-22T10:44:01;28.70;99.90
6355;DHT22;3210;48.708;9.030;2022-07-22T10:46:47;28.80;99.90
6355;DHT22;3210;48.708;9.030;2022-07-22T10:49:15;28.80;99.90
6355;DHT22;3210;48.708;9.030;2022-07-22T10:52:08;28.90;99.90
6355;DHT22;3210;48.708;9.030;2022-07-22T10:57:37;29.30;99.90
6355;DHT22;3210;48.708;9.030;2022-07-22T11:00:05;29.30;99.90
6355;DHT22;3210;48.708;9.030;2022-07-22T11:02:33;29.10;65.40
6355;DHT22;3210;48.708;9.030;2022-07-22T11:05:01;28.90;99.90
6355;DHT22;3210;48.708;9.030;2022-07-22T11:07:28;28.90;99.90
6355;DHT22;3210;48.708;9.030;2022-07-22T11:10:09;29.20;99.90
6355;DHT22;3210;48.708;9.030;2022-07-22T11:12:37;29.40;99.90
6355;DHT22;3210;48.708;9.030;2022-07-22T11:15:06;29.70;21.10
6355;DHT22;3210;48.708;9.030;2022-07-22T11:17:33;30.10;9.80
6355;DHT22;3210;48.708;9.030;2022-07-22T11:20:00;30.30;1.00
6355;DHT22;3210;48.708;9.030;2022-07-22T11:22:27;30.40;1.00
6355;DHT22;3210;48.708;9.030;2022-07-22T11:24:54;30.50;1.00
6355;DHT22;3210;48.708;9.030;2022-07-22T11:27:22;30.50;1.00
6355;DHT22;3210;48.708;9.030;2022-07-22T11:29:52;30.40;1.00
6355;DHT22;3210;48.708;9.030;2022-07-22T11:32:21;30.40;1.00
6355;DHT22;3210;48.708;9.030;2022-07-22T11:34:48;30.30;1.00
6355;DHT22;3210;48.708;9.030;2022-07-22T11:37:16;30.40;1.00
6355;DHT22;3210;48.708;9.030;2022-07-22T11:39:43;30.30;1.00
6355;DHT22;3210;48.708;9.030;2022-07-22T11:42:10;30.30;1.00
6355;DHT22;3210;48.708;9.030;2022-07-22T11:44:38;30.50;1.00
6355;DHT22;3210;48.708;9.030;2022-07-22T11:47:08;30.80;1.00
6355;DHT22;3210;48.708;9.030;2022-07-22T11:49:36;31.00;1.00
6355;DHT22;3210;48.708;9.030;2022-07-22T11:52:05;31.00;1.00
6355;DHT22;3210;48.708;9.030;2022-07-22T11:54:33;30.90;1.00
6355;DHT22;3210;48.708;9.030;2022-07-22T11:57:00;30.60;1.00
6355;DHT22;3210;48.708;9.030;2022-07-22T11:59:27;30.30;1.00
6355;DHT22;3210;48.708;9.030;2022-07-22T12:01:54;30.40;1.00
6355;DHT22;3210;48.708;9.030;2022-07-22T12:04:24;30.60;1.00
6355;DHT22;3210;48.708;9.030;2022-07-22T12:06:52;30.60;1.00
6355;DHT22;3210;48.708;9.030;2022-07-22T12:09:21;30.70;1.00
6355;DHT22;3210;48.708;9.030;2022-07-22T12:11:50;30.50;1.00
6355;DHT22;3210;48.708;9.030;2022-07-22T12:14:18;30.70;1.00
6355;DHT22;3210;48.708;9.030;2022-07-22T12:16:54;30.70;1.00
6355;DHT22;3210;48.708;9.030;2022-07-22T12:19:23;30.80;1.00
6355;DHT22;3210;48.708;9.030;2022-07-22T12:21:51;31.00;1.00
6355;DHT22;3210;48.708;9.030;2022-07-22T12:24:25;31.00;1.00
6355;DHT22;3210;48.708;9.030;2022-07-22T12:26:53;31.00;1.00
6355;DHT22;3210;48.708;9.030;2022-07-22T12:29:22;31.10;1.00
6355;DHT22;3210;48.708;9.030;2022-07-22T12:31:51;31.00;1.00
6355;DHT22;3210;48.708;9.030;2022-07-22T12:34:34;31.20;1.00
6355;DHT22;3210;48.708;9.030;2022-07-22T12:37:11;31.00;1.00
6355;DHT22;3210;48.708;9.030;2022-07-22T12:39:39;30.90;1.00
6355;DHT22;3210;48.708;9.030;2022-07-22T12:42:17;31.00;1.00
6355;DHT22;3210;48.708;9.030;2022-07-22T12:44:50;31.10;1.00
6355;DHT22;3210;48.708;9.030;2022-07-22T12:47:17;31.20;1.00
6355;DHT22;3210;48.708;9.030;2022-07-22T12:50:23;31.40;1.00
6355;DHT22;3210;48.708;9.030;2022-07-22T12:52:52;31.50;1.00
6355;DHT22;3210;48.708;9.030;2022-07-22T12:55:20;31.60;1.00
6355;DHT22;3210;48.708;9.030;2022-07-22T12:57:47;31.60;1.00
6355;DHT22;3210;48.708;9.030;2022-07-22T13:00:18;31.60;1.00
6355;DHT22;3210;48.708;9.030;2022-07-22T13:02:45;31.70;1.00
6355;DHT22;3210;48.708;9.030;2022-07-22T13:05:12;31.80;1.00
6355;DHT22;3210;48.708;9.030;2022-07-22T13:07:40;32.00;1.00
6355;DHT22;3210;48.708;9.030;2022-07-22T13:10:08;31.90;1.00
6355;DHT22;3210;48.708;9.030;2022-07-22T13:12:35;31.60;1.00
6355;DHT22;3210;48.708;9.030;2022-07-22T13:15:02;31.50;1.00
6355;DHT22;3210;48.708;9.030;2022-07-22T13:17:29;31.00;1.00
6355;DHT22;3210;48.708;9.030;2022-07-22T13:19:56;30.50;1.00
6355;DHT22;3210;48.708;9.030;2022-07-22T13:22:23;30.50;1.00
6355;DHT22;3210;48.708;9.030;2022-07-22T13:24:51;30.50;1.00
6355;DHT22;3210;48.708;9.030;2022-07-22T13:27:18;30.90;1.00
6355;DHT22;3210;48.708;9.030;2022-07-22T13:29:45;31.20;1.00
6355;DHT22;3210;48.708;9.030;2022-07-22T13:32:11;31.50;1.00
6355;DHT22;3210;48.708;9.030;2022-07-22T13:34:38;31.80;1.00
6355;DHT22;3210;48.708;9.030;2022-07-22T13:37:05;31.70;27.70
6355;DHT22;3210;48.708;9.030;2022-07-22T13:39:32;31.80;99.90
6355;DHT22;3210;48.708;9.030;2022-07-22T13:42:00;31.80;99.90
6355;DHT22;3210;48.708;9.030;2022-07-22T13:44:27;31.90;99.90
6355;DHT22;3210;48.708;9.030;2022-07-22T13:46:56;31.90;99.90
6355;DHT22;3210;48.708;9.030;2022-07-22T13:49:23;32.00;1.00
6355;DHT22;3210;48.708;9.030;2022-07-22T13:51:50;31.70;1.00
6355;DHT22;3210;48.708;9.030;2022-07-22T13:54:17;32.00;1.00
6355;DHT22;3210;48.708;9.030;2022-07-22T13:56:44;32.10;99.90
6355;DHT22;3210;48.708;9.030;2022-07-22T13:59:14;32.20;18.10
6355;DHT22;3210;48.708;9.030;2022-07-22T14:01:41;32.10;99.90
6355;DHT22;3210;48.708;9.030;2022-07-22T14:04:08;32.20;1.00
6355;DHT22;3210;48.708;9.030;2022-07-22T14:06:35;32.30;1.00
6355;DHT22;3210;48.708;9.030;2022-07-22T14:09:03;32.40;1.00
6355;DHT22;3210;48.708;9.030;2022-07-22T14:11:30;32.60;1.00
6355;DHT22;3210;48.708;9.030;2022-07-22T14:13:57;32.60;1.00
6355;DHT22;3210;48.708;9.030;2022-07-22T14:16:25;32.60;1.00
6355;DHT22;3210;48.708;9.030;2022-07-22T14:19:01;32.60;1.00
6355;DHT22;3210;48.708;9.030;2022-07-22T14:21:28;32.40;1.00
6355;DHT22;3210;48.708;9.030;2022-07-22T14:23:56;32.50;4.90
6355;DHT22;3210;48.708;9.030;2022-07-22T14:26:22;32.50;99.90
6355;DHT22;3210;48.708;9.030;2022-07-22T14:28:49;32.50;1.00
6355;DHT22;3210;48.708;9.030;2022-07-22T14:31:16;32.70;1.00
6355;DHT22;3210;48.708;9.030;2022-07-22T14:33:44;32.70;1.00
6355;DHT22;3210;48.708;9.030;2022-07-22T14:36:11;32.50;99.90
6355;DHT22;3210;48.708;9.030;2022-07-22T14:38:38;32.50;99.90
6355;DHT22;3210;48.708;9.030;2022-07-22T14:41:05;32.40;99.90
6355;DHT22;3210;48.708;9.030;2022-07-22T14:43:33;32.50;1.00
6355;DHT22;3210;48.708;9.030;2022-07-22T14:45:59;32.70;1.00
6355;DHT22;3210;48.708;9.030;2022-07-22T14:48:26;32.40;1.00
6355;DHT22;3210;48.708;9.030;2022-07-22T14:50:54;32.50;1.00
6355;DHT22;3210;48.708;9.030;2022-07-22T14:53:21;32.50;1.00
6355;DHT22;3210;48.708;9.030;2022-07-22T14:55:49;32.50;1.00
6355;DHT22;3210;48.708;9.030;2022-07-22T14:58:16;32.50;1.00
6355;DHT22;3210;48.708;9.030;2022-07-22T15:00:43;32.60;68.40
6355;DHT22;3210;48.708;9.030;2022-07-22T15:03:10;32.70;99.90
6355;DHT22;3210;48.708;9.030;2022-07-22T15:05:37;32.90;99.90
6355;DHT22;3210;48.708;9.030;2022-07-22T15:08:06;33.10;99.90
6355;DHT22;3210;48.708;9.030;2022-07-22T15:10:33;33.20;99.90
6355;DHT22;3210;48.708;9.030;2022-07-22T15:13:00;32.90;99.90
6355;DHT22;3210;48.708;9.030;2022-07-22T15:15:27;33.20;99.90
6355;DHT22;3210;48.708;9.030;2022-07-22T15:17:54;33.10;99.90
6355;DHT22;3210;48.708;9.030;2022-07-22T15:20:20;33.10;99.90
6355;DHT22;3210;48.708;9.030;2022-07-22T15:22:47;33.00;99.90
6355;DHT22;3210;48.708;9.030;2022-07-22T15:25:15;33.00;99.90
6355;DHT22;3210;48.708;9.030;2022-07-22T15:27:42;32.70;99.90
6355;DHT22;3210;48.708;9.030;2022-07-22T15:30:10;32.50;1.00
6355;DHT22;3210;48.708;9.030;2022-07-22T15:32:37;32.30;99.90
6355;DHT22;3210;48.708;9.030;2022-07-22T15:35:05;32.40;1.00
6355;DHT22;3210;48.708;9.030;2022-07-22T15:37:33;32.80;99.90
6355;DHT22;3210;48.708;9.030;2022-07-22T15:39:59;33.10;99.90
6355;DHT22;3210;48.708;9.030;2022-07-22T15:42:28;32.70;99.90
6355;DHT22;3210;48.708;9.030;2022-07-22T15:44:54;32.30;99.90
6355;DHT22;3210;48.708;9.030;2022-07-22T15:47:21;32.20;1.00
6355;DHT22;3210;48.708;9.030;2022-07-22T15:49:48;32.60;99.90
6355;DHT22;3210;48.708;9.030;2022-07-22T15:52:15;32.80;99.90
6355;DHT22;3210;48.708;9.030;2022-07-22T15:54:41;33.00;1.00
6355;DHT22;3210;48.708;9.030;2022-07-22T15:57:08;33.20;99.90
6355;DHT22;3210;48.708;9.030;2022-07-22T15:59:54;33.10;99.90
6355;DHT22;3210;48.708;9.030;2022-07-22T16:02:20;33.20;99.90
6355;DHT22;3210;48.708;9.030;2022-07-22T16:04:47;32.90;99.90
6355;DHT22;3210;48.708;9.030;2022-07-22T16:07:14;32.40;1.00
6355;DHT22;3210;48.708;9.030;2022-07-22T16:09:41;32.20;1.00
6355;DHT22;3210;48.708;9.030;2022-07-22T16:12:08;32.00;1.00
6355;DHT22;3210;48.708;9.030;2022-07-22T16:14:36;31.80;1.00
6355;DHT22;3210;48.708;9.030;2022-07-22T16:17:04;31.50;99.90